Au Sable Forks, New York
Current Conditions -  °F | °C
As of 4:53 PM on Friday 24 Oct 2014 (Local Time) from KPBG Reporting Station
Overcast Overcast  
Wind Chill: 50°   Ceiling: 3800
Heat Index: 50°   Visibility: 10mi
Dew Point: 41°   Wind: 7mph
Humidity: 71%   Direction: 310°NW
Pressure: 29.84"   Gusts: NA
Location:  44.44°N, 73.67°W
Report Text: KPBG 242053Z AUTO 31006KT 10SM OVC038 10/05 A2984 RMK AO2 SLP107 T01000050 53002
Loading
Personal Weather Stations






























Interactive Weather Map
Tropical Storm Tracking
New forecast layout! Learn more

10-Day Weather Forecast

Advertisements
Track Severe Weather on mobile